sensor_id;sensor_type;location;lat;lon;timestamp;P1;durP1;ratioP1;P2;durP2;ratioP2
17892;SDS011;9072;51.918;4.380;2023-12-29T00:00:28;11.20;;;3.53;;
17892;SDS011;9072;51.918;4.380;2023-12-29T00:03:23;14.97;;;3.43;;
17892;SDS011;9072;51.918;4.380;2023-12-29T00:06:40;12.03;;;3.20;;
17892;SDS011;9072;51.918;4.380;2023-12-29T00:09:03;15.40;;;3.50;;
17892;SDS011;9072;51.918;4.380;2023-12-29T00:11:58;13.93;;;3.47;;
17892;SDS011;9072;51.918;4.380;2023-12-29T00:14:43;15.73;;;3.60;;
17892;SDS011;9072;51.918;4.380;2023-12-29T00:17:42;13.47;;;3.30;;
17892;SDS011;9072;51.918;4.380;2023-12-29T00:20:22;19.23;;;3.77;;
17892;SDS011;9072;51.918;4.380;2023-12-29T00:23:05;12.40;;;3.80;;
17892;SDS011;9072;51.918;4.380;2023-12-29T00:25:39;14.30;;;3.60;;
17892;SDS011;9072;51.918;4.380;2023-12-29T00:28:17;12.80;;;3.50;;
17892;SDS011;9072;51.918;4.380;2023-12-29T00:30:56;14.10;;;3.17;;
17892;SDS011;9072;51.918;4.380;2023-12-29T00:34:06;15.37;;;3.93;;
17892;SDS011;9072;51.918;4.380;2023-12-29T00:36:50;14.87;;;3.40;;
17892;SDS011;9072;51.918;4.380;2023-12-29T00:39:34;14.07;;;3.83;;
17892;SDS011;9072;51.918;4.380;2023-12-29T00:42:30;16.40;;;3.53;;
17892;SDS011;9072;51.918;4.380;2023-12-29T00:45:23;15.43;;;3.87;;
17892;SDS011;9072;51.918;4.380;2023-12-29T00:48:29;17.23;;;3.83;;
17892;SDS011;9072;51.918;4.380;2023-12-29T00:51:04;11.60;;;3.60;;
17892;SDS011;9072;51.918;4.380;2023-12-29T00:53:44;13.00;;;3.63;;
17892;SDS011;9072;51.918;4.380;2023-12-29T00:56:19;10.67;;;3.00;;
17892;SDS011;9072;51.918;4.380;2023-12-29T00:59:13;16.67;;;4.17;;
17892;SDS011;9072;51.918;4.380;2023-12-29T01:05:22;12.40;;;3.27;;
17892;SDS011;9072;51.918;4.380;2023-12-29T01:08:13;14.07;;;4.03;;
17892;SDS011;9072;51.918;4.380;2023-12-29T01:10:46;16.80;;;3.60;;
17892;SDS011;9072;51.918;4.380;2023-12-29T01:13:48;16.73;;;4.40;;
17892;SDS011;9072;51.918;4.380;2023-12-29T01:16:37;12.43;;;3.37;;
17892;SDS011;9072;51.918;4.380;2023-12-29T01:19:26;17.20;;;3.47;;
17892;SDS011;9072;51.918;4.380;2023-12-29T01:22:20;14.97;;;4.00;;
17892;SDS011;9072;51.918;4.380;2023-12-29T01:24:47;14.03;;;3.67;;
17892;SDS011;9072;51.918;4.380;2023-12-29T01:27:52;16.07;;;3.83;;
17892;SDS011;9072;51.918;4.380;2023-12-29T01:30:34;13.87;;;3.97;;
17892;SDS011;9072;51.918;4.380;2023-12-29T01:33:10;14.03;;;3.93;;
17892;SDS011;9072;51.918;4.380;2023-12-29T01:35:55;13.73;;;4.00;;
17892;SDS011;9072;51.918;4.380;2023-12-29T01:41:52;13.00;;;3.63;;
17892;SDS011;9072;51.918;4.380;2023-12-29T01:44:38;12.07;;;3.30;;
17892;SDS011;9072;51.918;4.380;2023-12-29T01:47:28;14.80;;;4.30;;
17892;SDS011;9072;51.918;4.380;2023-12-29T01:50:23;12.30;;;3.33;;
17892;SDS011;9072;51.918;4.380;2023-12-29T01:53:09;13.27;;;3.40;;
17892;SDS011;9072;51.918;4.380;2023-12-29T01:55:59;13.53;;;3.47;;
17892;SDS011;9072;51.918;4.380;2023-12-29T01:58:48;15.63;;;3.67;;
17892;SDS011;9072;51.918;4.380;2023-12-29T02:01:58;16.20;;;3.73;;
17892;SDS011;9072;51.918;4.380;2023-12-29T02:04:29;13.97;;;3.77;;
17892;SDS011;9072;51.918;4.380;2023-12-29T02:07:01;13.20;;;3.30;;
17892;SDS011;9072;51.918;4.380;2023-12-29T02:10:03;10.97;;;2.90;;
17892;SDS011;9072;51.918;4.380;2023-12-29T02:19:12;10.27;;;3.63;;
17892;SDS011;9072;51.918;4.380;2023-12-29T02:22:16;14.10;;;2.90;;
17892;SDS011;9072;51.918;4.380;2023-12-29T02:25:04;12.33;;;3.50;;
17892;SDS011;9072;51.918;4.380;2023-12-29T02:27:52;14.73;;;3.17;;
17892;SDS011;9072;51.918;4.380;2023-12-29T02:30:29;12.90;;;3.20;;
17892;SDS011;9072;51.918;4.380;2023-12-29T02:33:18;13.70;;;3.70;;
17892;SDS011;9072;51.918;4.380;2023-12-29T02:36:12;14.53;;;3.20;;
17892;SDS011;9072;51.918;4.380;2023-12-29T02:39:18;16.20;;;3.93;;
17892;SDS011;9072;51.918;4.380;2023-12-29T02:54:52;13.73;;;3.57;;
17892;SDS011;9072;51.918;4.380;2023-12-29T02:58:03;12.50;;;3.50;;
17892;SDS011;9072;51.918;4.380;2023-12-29T03:00:51;14.50;;;3.87;;
17892;SDS011;9072;51.918;4.380;2023-12-29T03:03:58;11.33;;;3.20;;
17892;SDS011;9072;51.918;4.380;2023-12-29T03:07:19;13.20;;;3.67;;
17892;SDS011;9072;51.918;4.380;2023-12-29T03:09:59;9.80;;;2.93;;
17892;SDS011;9072;51.918;4.380;2023-12-29T03:12:31;15.57;;;4.37;;
17892;SDS011;9072;51.918;4.380;2023-12-29T03:15:19;14.27;;;4.03;;
17892;SDS011;9072;51.918;4.380;2023-12-29T03:17:59;14.47;;;3.90;;
17892;SDS011;9072;51.918;4.380;2023-12-29T03:20:51;14.67;;;3.27;;
17892;SDS011;9072;51.918;4.380;2023-12-29T03:23:34;12.93;;;3.30;;
17892;SDS011;9072;51.918;4.380;2023-12-29T03:26:28;11.13;;;3.17;;
17892;SDS011;9072;51.918;4.380;2023-12-29T03:31:11;19.57;;;4.40;;
17892;SDS011;9072;51.918;4.380;2023-12-29T03:32:29;12.70;;;3.30;;
17892;SDS011;9072;51.918;4.380;2023-12-29T03:35:07;13.10;;;2.90;;
17892;SDS011;9072;51.918;4.380;2023-12-29T03:41:08;16.63;;;3.97;;
17892;SDS011;9072;51.918;4.380;2023-12-29T03:43:44;21.60;;;3.97;;
17892;SDS011;9072;51.918;4.380;2023-12-29T03:46:32;14.07;;;3.93;;
17892;SDS011;9072;51.918;4.380;2023-12-29T03:49:35;17.93;;;3.57;;
17892;SDS011;9072;51.918;4.380;2023-12-29T03:53:06;13.20;;;3.60;;
17892;SDS011;9072;51.918;4.380;2023-12-29T04:05:22;13.97;;;3.37;;
17892;SDS011;9072;51.918;4.380;2023-12-29T04:10:44;18.33;;;3.60;;
17892;SDS011;9072;51.918;4.380;2023-12-29T04:16:36;15.73;;;3.57;;
17892;SDS011;9072;51.918;4.380;2023-12-29T04:23:00;19.17;;;4.50;;
17892;SDS011;9072;51.918;4.380;2023-12-29T04:26:26;13.63;;;3.23;;
17892;SDS011;9072;51.918;4.380;2023-12-29T04:29:59;17.13;;;3.47;;
17892;SDS011;9072;51.918;4.380;2023-12-29T04:32:25;22.23;;;4.23;;
17892;SDS011;9072;51.918;4.380;2023-12-29T04:36:25;13.80;;;3.20;;
17892;SDS011;9072;51.918;4.380;2023-12-29T04:39:32;19.30;;;4.03;;
17892;SDS011;9072;51.918;4.380;2023-12-29T04:45:28;22.93;;;4.20;;
17892;SDS011;9072;51.918;4.380;2023-12-29T04:52:11;18.17;;;4.30;;
17892;SDS011;9072;51.918;4.380;2023-12-29T04:55:16;15.73;;;3.70;;
17892;SDS011;9072;51.918;4.380;2023-12-29T04:58:26;18.47;;;4.23;;
17892;SDS011;9072;51.918;4.380;2023-12-29T05:11:20;20.20;;;4.17;;
17892;SDS011;9072;51.918;4.380;2023-12-29T05:17:04;13.23;;;3.93;;
17892;SDS011;9072;51.918;4.380;2023-12-29T05:19:38;17.80;;;3.90;;
17892;SDS011;9072;51.918;4.380;2023-12-29T05:22:08;17.53;;;4.10;;
17892;SDS011;9072;51.918;4.380;2023-12-29T05:25:04;19.83;;;3.83;;
17892;SDS011;9072;51.918;4.380;2023-12-29T05:27:51;12.77;;;3.97;;
17892;SDS011;9072;51.918;4.380;2023-12-29T05:30:39;15.83;;;3.53;;
17892;SDS011;9072;51.918;4.380;2023-12-29T05:33:26;12.63;;;3.47;;
17892;SDS011;9072;51.918;4.380;2023-12-29T05:36:13;14.33;;;3.57;;
17892;SDS011;9072;51.918;4.380;2023-12-29T05:39:08;16.10;;;3.63;;
17892;SDS011;9072;51.918;4.380;2023-12-29T05:41:50;11.90;;;3.27;;
17892;SDS011;9072;51.918;4.380;2023-12-29T05:44:29;17.13;;;3.77;;
17892;SDS011;9072;51.918;4.380;2023-12-29T05:47:01;13.13;;;3.50;;
17892;SDS011;9072;51.918;4.380;2023-12-29T05:49:29;16.60;;;3.83;;
17892;SDS011;9072;51.918;4.380;2023-12-29T06:06:14;13.87;;;4.57;;
17892;SDS011;9072;51.918;4.380;2023-12-29T06:15:24;9.37;;;3.73;;
17892;SDS011;9072;51.918;4.380;2023-12-29T06:20:35;17.63;;;3.80;;
17892;SDS011;9072;51.918;4.380;2023-12-29T06:27:11;14.53;;;4.57;;
17892;SDS011;9072;51.918;4.380;2023-12-29T06:30:03;13.37;;;4.20;;
17892;SDS011;9072;51.918;4.380;2023-12-29T06:33:02;16.50;;;4.23;;
17892;SDS011;9072;51.918;4.380;2023-12-29T06:35:57;12.13;;;3.40;;
17892;SDS011;9072;51.918;4.380;2023-12-29T06:45:12;16.93;;;3.80;;
17892;SDS011;9072;51.918;4.380;2023-12-29T06:48:01;14.57;;;4.40;;
17892;SDS011;9072;51.918;4.380;2023-12-29T06:50:52;11.03;;;3.50;;
17892;SDS011;9072;51.918;4.380;2023-12-29T06:53:27;10.63;;;4.00;;
17892;SDS011;9072;51.918;4.380;2023-12-29T06:56:04;12.70;;;3.80;;
17892;SDS011;9072;51.918;4.380;2023-12-29T06:58:44;9.17;;;3.17;;
17892;SDS011;9072;51.918;4.380;2023-12-29T07:11:06;7.87;;;3.20;;
17892;SDS011;9072;51.918;4.380;2023-12-29T07:13:59;10.67;;;3.50;;
17892;SDS011;9072;51.918;4.380;2023-12-29T07:17:01;8.67;;;3.30;;
17892;SDS011;9072;51.918;4.380;2023-12-29T07:19:44;9.57;;;3.17;;
17892;SDS011;9072;51.918;4.380;2023-12-29T07:22:33;9.17;;;3.43;;
17892;SDS011;9072;51.918;4.380;2023-12-29T07:28:07;10.47;;;3.00;;
17892;SDS011;9072;51.918;4.380;2023-12-29T07:30:55;8.40;;;3.07;;
17892;SDS011;9072;51.918;4.380;2023-12-29T07:33:35;12.43;;;4.80;;
17892;SDS011;9072;51.918;4.380;2023-12-29T07:36:16;9.13;;;3.43;;
17892;SDS011;9072;51.918;4.380;2023-12-29T07:39:19;6.67;;;3.53;;
17892;SDS011;9072;51.918;4.380;2023-12-29T07:41:55;9.50;;;3.77;;
17892;SDS011;9072;51.918;4.380;2023-12-29T07:44:42;10.77;;;3.53;;
17892;SDS011;9072;51.918;4.380;2023-12-29T07:47:15;7.53;;;3.20;;
17892;SDS011;9072;51.918;4.380;2023-12-29T07:49:53;9.07;;;3.13;;
17892;SDS011;9072;51.918;4.380;2023-12-29T07:52:50;7.20;;;2.80;;
17892;SDS011;9072;51.918;4.380;2023-12-29T07:55:37;8.87;;;3.30;;
17892;SDS011;9072;51.918;4.380;2023-12-29T07:58:11;8.17;;;3.00;;
17892;SDS011;9072;51.918;4.380;2023-12-29T08:00:46;7.27;;;3.00;;
17892;SDS011;9072;51.918;4.380;2023-12-29T08:03:29;6.13;;;3.10;;
17892;SDS011;9072;51.918;4.380;2023-12-29T08:06:01;7.27;;;2.70;;
17892;SDS011;9072;51.918;4.380;2023-12-29T08:11:43;6.07;;;3.03;;
17892;SDS011;9072;51.918;4.380;2023-12-29T08:14:40;9.37;;;3.20;;
17892;SDS011;9072;51.918;4.380;2023-12-29T08:17:25;7.13;;;2.87;;
17892;SDS011;9072;51.918;4.380;2023-12-29T08:20:18;8.33;;;3.00;;
17892;SDS011;9072;51.918;4.380;2023-12-29T08:22:50;7.43;;;2.60;;
17892;SDS011;9072;51.918;4.380;2023-12-29T08:25:33;9.23;;;2.93;;
17892;SDS011;9072;51.918;4.380;2023-12-29T08:28:13;7.93;;;2.83;;
17892;SDS011;9072;51.918;4.380;2023-12-29T08:30:58;6.33;;;2.20;;
17892;SDS011;9072;51.918;4.380;2023-12-29T08:33:53;7.07;;;2.30;;
17892;SDS011;9072;51.918;4.380;2023-12-29T08:36:38;8.00;;;2.30;;
17892;SDS011;9072;51.918;4.380;2023-12-29T08:39:24;7.50;;;2.13;;
17892;SDS011;9072;51.918;4.380;2023-12-29T08:45:38;11.77;;;2.07;;
17892;SDS011;9072;51.918;4.380;2023-12-29T08:48:22;8.57;;;2.47;;
17892;SDS011;9072;51.918;4.380;2023-12-29T08:50:58;8.07;;;2.40;;
17892;SDS011;9072;51.918;4.380;2023-12-29T08:53:32;8.00;;;2.30;;
17892;SDS011;9072;51.918;4.380;2023-12-29T08:56:28;6.33;;;2.67;;
17892;SDS011;9072;51.918;4.380;2023-12-29T08:59:05;5.30;;;2.20;;
17892;SDS011;9072;51.918;4.380;2023-12-29T09:01:46;8.00;;;2.40;;
17892;SDS011;9072;51.918;4.380;2023-12-29T09:04:28;6.60;;;2.43;;
17892;SDS011;9072;51.918;4.380;2023-12-29T09:07:25;8.23;;;2.30;;
17892;SDS011;9072;51.918;4.380;2023-12-29T09:09:58;9.70;;;2.37;;
17892;SDS011;9072;51.918;4.380;2023-12-29T09:12:30;6.37;;;2.07;;
17892;SDS011;9072;51.918;4.380;2023-12-29T09:15:03;3.50;;;1.80;;
17892;SDS011;9072;51.918;4.380;2023-12-29T09:17:42;4.43;;;1.90;;
17892;SDS011;9072;51.918;4.380;2023-12-29T09:20:21;6.17;;;1.87;;
17892;SDS011;9072;51.918;4.380;2023-12-29T09:22:55;5.50;;;1.80;;
17892;SDS011;9072;51.918;4.380;2023-12-29T09:25:36;3.93;;;1.90;;
17892;SDS011;9072;51.918;4.380;2023-12-29T09:28:32;5.30;;;2.10;;
17892;SDS011;9072;51.918;4.380;2023-12-29T09:31:24;3.83;;;2.10;;
17892;SDS011;9072;51.918;4.380;2023-12-29T09:34:17;3.93;;;1.70;;
17892;SDS011;9072;51.918;4.380;2023-12-29T09:37:38;3.43;;;1.73;;
17892;SDS011;9072;51.918;4.380;2023-12-29T09:41:04;3.90;;;1.80;;
17892;SDS011;9072;51.918;4.380;2023-12-29T09:47:41;3.73;;;1.70;;
17892;SDS011;9072;51.918;4.380;2023-12-29T09:53:44;6.50;;;1.73;;
17892;SDS011;9072;51.918;4.380;2023-12-29T09:57:55;5.47;;;1.50;;
17892;SDS011;9072;51.918;4.380;2023-12-29T09:59:49;4.40;;;1.70;;
17892;SDS011;9072;51.918;4.380;2023-12-29T10:02:39;7.23;;;1.73;;
17892;SDS011;9072;51.918;4.380;2023-12-29T10:05:20;4.97;;;1.47;;
17892;SDS011;9072;51.918;4.380;2023-12-29T10:48:08;10.87;;;2.47;;
17892;SDS011;9072;51.918;4.380;2023-12-29T10:51:26;12.63;;;2.70;;
17892;SDS011;9072;51.918;4.380;2023-12-29T13:16:55;18.07;;;4.33;;
17892;SDS011;9072;51.918;4.380;2023-12-29T13:19:59;20.07;;;4.33;;
17892;SDS011;9072;51.918;4.380;2023-12-29T13:29:11;15.57;;;4.30;;
17892;SDS011;9072;51.918;4.380;2023-12-29T13:32:24;15.67;;;4.30;;
17892;SDS011;9072;51.918;4.380;2023-12-29T13:35:54;17.83;;;4.53;;
17892;SDS011;9072;51.918;4.380;2023-12-29T13:38:21;20.97;;;4.00;;
17892;SDS011;9072;51.918;4.380;2023-12-29T13:41:12;13.90;;;3.90;;
17892;SDS011;9072;51.918;4.380;2023-12-29T13:56:48;8.57;;;2.73;;
17892;SDS011;9072;51.918;4.380;2023-12-29T14:04:06;5.63;;;2.30;;
17892;SDS011;9072;51.918;4.380;2023-12-29T14:06:30;8.57;;;2.47;;
17892;SDS011;9072;51.918;4.380;2023-12-29T14:22:48;8.47;;;2.20;;
17892;SDS011;9072;51.918;4.380;2023-12-29T14:25:48;6.10;;;2.10;;
17892;SDS011;9072;51.918;4.380;2023-12-29T14:28:25;8.47;;;2.00;;
17892;SDS011;9072;51.918;4.380;2023-12-29T14:31:29;8.37;;;2.10;;
17892;SDS011;9072;51.918;4.380;2023-12-29T14:34:09;6.37;;;2.00;;
17892;SDS011;9072;51.918;4.380;2023-12-29T14:36:53;8.83;;;2.20;;
17892;SDS011;9072;51.918;4.380;2023-12-29T14:39:30;7.90;;;2.20;;
17892;SDS011;9072;51.918;4.380;2023-12-29T14:41:58;8.07;;;2.13;;
17892;SDS011;9072;51.918;4.380;2023-12-29T14:44:32;4.83;;;2.10;;
17892;SDS011;9072;51.918;4.380;2023-12-29T14:47:11;6.50;;;2.40;;
17892;SDS011;9072;51.918;4.380;2023-12-29T14:50:09;7.20;;;2.43;;
17892;SDS011;9072;51.918;4.380;2023-12-29T14:52:45;8.17;;;2.53;;
17892;SDS011;9072;51.918;4.380;2023-12-29T14:55:29;8.97;;;2.33;;
17892;SDS011;9072;51.918;4.380;2023-12-29T14:58:07;5.77;;;2.10;;
17892;SDS011;9072;51.918;4.380;2023-12-29T15:00:41;8.77;;;2.30;;
17892;SDS011;9072;51.918;4.380;2023-12-29T15:06:29;8.70;;;2.10;;
17892;SDS011;9072;51.918;4.380;2023-12-29T15:09:17;6.90;;;2.30;;
17892;SDS011;9072;51.918;4.380;2023-12-29T15:12:01;8.93;;;2.30;;
17892;SDS011;9072;51.918;4.380;2023-12-29T15:14:30;6.83;;;2.30;;
17892;SDS011;9072;51.918;4.380;2023-12-29T15:17:03;8.10;;;2.47;;
17892;SDS011;9072;51.918;4.380;2023-12-29T15:19:36;8.70;;;3.00;;
17892;SDS011;9072;51.918;4.380;2023-12-29T15:22:12;9.07;;;2.60;;
17892;SDS011;9072;51.918;4.380;2023-12-29T15:24:44;8.13;;;2.37;;
17892;SDS011;9072;51.918;4.380;2023-12-29T15:27:34;10.40;;;3.00;;
17892;SDS011;9072;51.918;4.380;2023-12-29T15:30:14;9.83;;;2.73;;
17892;SDS011;9072;51.918;4.380;2023-12-29T15:33:07;11.93;;;2.47;;
17892;SDS011;9072;51.918;4.380;2023-12-29T15:35:43;11.73;;;2.90;;
17892;SDS011;9072;51.918;4.380;2023-12-29T15:38:18;8.55;;;2.70;;
17892;SDS011;9072;51.918;4.380;2023-12-29T15:41:05;8.20;;;2.60;;
17892;SDS011;9072;51.918;4.380;2023-12-29T15:43:54;8.97;;;2.20;;
17892;SDS011;9072;51.918;4.380;2023-12-29T15:49:17;8.03;;;2.37;;
17892;SDS011;9072;51.918;4.380;2023-12-29T15:51:47;11.03;;;2.40;;
17892;SDS011;9072;51.918;4.380;2023-12-29T15:54:19;8.80;;;2.87;;
17892;SDS011;9072;51.918;4.380;2023-12-29T15:57:05;11.20;;;3.20;;
17892;SDS011;9072;51.918;4.380;2023-12-29T15:59:39;10.10;;;3.10;;
17892;SDS011;9072;51.918;4.380;2023-12-29T16:02:20;10.57;;;3.53;;
17892;SDS011;9072;51.918;4.380;2023-12-29T16:05:09;8.00;;;3.27;;
17892;SDS011;9072;51.918;4.380;2023-12-29T16:11:18;12.63;;;3.17;;
17892;SDS011;9072;51.918;4.380;2023-12-29T16:14:48;13.43;;;3.27;;
17892;SDS011;9072;51.918;4.380;2023-12-29T16:19:00;11.90;;;2.67;;
17892;SDS011;9072;51.918;4.380;2023-12-29T16:20:25;11.00;;;3.30;;
17892;SDS011;9072;51.918;4.380;2023-12-29T16:22:57;11.60;;;2.80;;
17892;SDS011;9072;51.918;4.380;2023-12-29T16:25:51;9.43;;;2.50;;
17892;SDS011;9072;51.918;4.380;2023-12-29T16:28:35;14.73;;;3.00;;
17892;SDS011;9072;51.918;4.380;2023-12-29T16:31:20;9.93;;;2.40;;
17892;SDS011;9072;51.918;4.380;2023-12-29T16:43:42;12.07;;;2.90;;
17892;SDS011;9072;51.918;4.380;2023-12-29T16:46:13;13.23;;;3.57;;
17892;SDS011;9072;51.918;4.380;2023-12-29T16:48:40;14.07;;;3.27;;
17892;SDS011;9072;51.918;4.380;2023-12-29T16:51:12;14.97;;;4.03;;
17892;SDS011;9072;51.918;4.380;2023-12-29T16:53:42;17.83;;;4.17;;
17892;SDS011;9072;51.918;4.380;2023-12-29T16:56:12;15.73;;;3.33;;
17892;SDS011;9072;51.918;4.380;2023-12-29T16:58:44;19.03;;;4.27;;
17892;SDS011;9072;51.918;4.380;2023-12-29T17:01:11;15.80;;;3.73;;
17892;SDS011;9072;51.918;4.380;2023-12-29T17:03:41;18.13;;;4.10;;
17892;SDS011;9072;51.918;4.380;2023-12-29T17:06:08;19.87;;;4.47;;
17892;SDS011;9072;51.918;4.380;2023-12-29T17:08:38;16.63;;;4.13;;
17892;SDS011;9072;51.918;4.380;2023-12-29T17:11:05;16.03;;;4.23;;
17892;SDS011;9072;51.918;4.380;2023-12-29T17:13:32;18.63;;;4.10;;
17892;SDS011;9072;51.918;4.380;2023-12-29T17:16:05;23.30;;;4.30;;
17892;SDS011;9072;51.918;4.380;2023-12-29T17:18:32;16.80;;;4.07;;
17892;SDS011;9072;51.918;4.380;2023-12-29T17:21:02;18.67;;;4.20;;
17892;SDS011;9072;51.918;4.380;2023-12-29T17:23:31;19.60;;;5.00;;
17892;SDS011;9072;51.918;4.380;2023-12-29T17:25:58;20.83;;;4.73;;
17892;SDS011;9072;51.918;4.380;2023-12-29T17:28:25;20.37;;;4.40;;
17892;SDS011;9072;51.918;4.380;2023-12-29T17:31:01;24.20;;;4.57;;
17892;SDS011;9072;51.918;4.380;2023-12-29T17:33:33;16.53;;;3.70;;
17892;SDS011;9072;51.918;4.380;2023-12-29T17:36:00;12.43;;;3.70;;
17892;SDS011;9072;51.918;4.380;2023-12-29T17:38:28;17.87;;;3.63;;
17892;SDS011;9072;51.918;4.380;2023-12-29T17:40:55;17.87;;;3.10;;
17892;SDS011;9072;51.918;4.380;2023-12-29T17:43:23;16.77;;;3.23;;
17892;SDS011;9072;51.918;4.380;2023-12-29T17:45:50;14.77;;;3.03;;
17892;SDS011;9072;51.918;4.380;2023-12-29T17:48:25;13.53;;;2.47;;
17892;SDS011;9072;51.918;4.380;2023-12-29T17:50:54;15.10;;;2.87;;
17892;SDS011;9072;51.918;4.380;2023-12-29T17:53:21;16.37;;;3.00;;
17892;SDS011;9072;51.918;4.380;2023-12-29T17:55:56;12.97;;;2.90;;
17892;SDS011;9072;51.918;4.380;2023-12-29T17:58:32;11.77;;;3.00;;
17892;SDS011;9072;51.918;4.380;2023-12-29T18:01:12;11.80;;;2.90;;
17892;SDS011;9072;51.918;4.380;2023-12-29T18:03:55;11.63;;;3.00;;
17892;SDS011;9072;51.918;4.380;2023-12-29T18:06:59;12.87;;;2.80;;
17892;SDS011;9072;51.918;4.380;2023-12-29T18:12:30;10.17;;;2.87;;
17892;SDS011;9072;51.918;4.380;2023-12-29T18:15:09;10.77;;;3.53;;
17892;SDS011;9072;51.918;4.380;2023-12-29T18:17:45;11.90;;;2.57;;
17892;SDS011;9072;51.918;4.380;2023-12-29T18:20:14;8.67;;;2.27;;
17892;SDS011;9072;51.918;4.380;2023-12-29T18:22:45;9.93;;;2.30;;
17892;SDS011;9072;51.918;4.380;2023-12-29T18:25:16;10.43;;;2.90;;
17892;SDS011;9072;51.918;4.380;2023-12-29T18:27:48;12.63;;;2.47;;
17892;SDS011;9072;51.918;4.380;2023-12-29T18:30:17;8.30;;;2.97;;
17892;SDS011;9072;51.918;4.380;2023-12-29T18:32:44;6.43;;;2.53;;
17892;SDS011;9072;51.918;4.380;2023-12-29T18:35:12;11.40;;;2.73;;
17892;SDS011;9072;51.918;4.380;2023-12-29T18:37:49;7.87;;;2.50;;
17892;SDS011;9072;51.918;4.380;2023-12-29T18:40:20;12.73;;;2.90;;
17892;SDS011;9072;51.918;4.380;2023-12-29T18:42:50;8.43;;;2.70;;
17892;SDS011;9072;51.918;4.380;2023-12-29T18:45:22;11.10;;;3.00;;
17892;SDS011;9072;51.918;4.380;2023-12-29T18:47:52;8.53;;;3.13;;
17892;SDS011;9072;51.918;4.380;2023-12-29T18:50:46;10.13;;;2.83;;
17892;SDS011;9072;51.918;4.380;2023-12-29T18:53:17;6.83;;;2.60;;
17892;SDS011;9072;51.918;4.380;2023-12-29T18:55:55;12.27;;;2.90;;
17892;SDS011;9072;51.918;4.380;2023-12-29T18:58:23;13.90;;;3.70;;
17892;SDS011;9072;51.918;4.380;2023-12-29T19:00:54;11.83;;;4.17;;
17892;SDS011;9072;51.918;4.380;2023-12-29T19:03:29;14.97;;;4.53;;
17892;SDS011;9072;51.918;4.380;2023-12-29T19:06:00;14.93;;;3.80;;
17892;SDS011;9072;51.918;4.380;2023-12-29T19:08:29;8.77;;;3.40;;
17892;SDS011;9072;51.918;4.380;2023-12-29T19:10:57;10.43;;;2.83;;
17892;SDS011;9072;51.918;4.380;2023-12-29T19:13:27;11.67;;;3.30;;
17892;SDS011;9072;51.918;4.380;2023-12-29T19:15:57;11.37;;;2.83;;
17892;SDS011;9072;51.918;4.380;2023-12-29T19:18:26;11.27;;;2.90;;
17892;SDS011;9072;51.918;4.380;2023-12-29T19:21:15;11.10;;;2.80;;
17892;SDS011;9072;51.918;4.380;2023-12-29T19:23:50;10.43;;;3.03;;
17892;SDS011;9072;51.918;4.380;2023-12-29T19:26:29;6.50;;;2.77;;
17892;SDS011;9072;51.918;4.380;2023-12-29T19:28:56;10.17;;;2.70;;
17892;SDS011;9072;51.918;4.380;2023-12-29T19:31:24;15.10;;;3.47;;
17892;SDS011;9072;51.918;4.380;2023-12-29T19:33:54;16.33;;;4.30;;
17892;SDS011;9072;51.918;4.380;2023-12-29T19:36:27;17.70;;;3.60;;
17892;SDS011;9072;51.918;4.380;2023-12-29T19:39:07;21.97;;;4.27;;
17892;SDS011;9072;51.918;4.380;2023-12-29T19:41:38;17.20;;;4.40;;
17892;SDS011;9072;51.918;4.380;2023-12-29T19:47:26;22.47;;;4.80;;
17892;SDS011;9072;51.918;4.380;2023-12-29T19:49:54;23.60;;;5.87;;
17892;SDS011;9072;51.918;4.380;2023-12-29T19:52:24;26.80;;;5.87;;
17892;SDS011;9072;51.918;4.380;2023-12-29T19:54:51;33.97;;;6.10;;
17892;SDS011;9072;51.918;4.380;2023-12-29T19:57:19;32.67;;;6.40;;
17892;SDS011;9072;51.918;4.380;2023-12-29T19:59:49;25.93;;;5.40;;
17892;SDS011;9072;51.918;4.380;2023-12-29T20:02:21;26.63;;;5.83;;
17892;SDS011;9072;51.918;4.380;2023-12-29T20:04:55;27.27;;;6.83;;
17892;SDS011;9072;51.918;4.380;2023-12-29T20:07:27;21.80;;;5.40;;
17892;SDS011;9072;51.918;4.380;2023-12-29T20:09:55;21.40;;;5.70;;
17892;SDS011;9072;51.918;4.380;2023-12-29T20:12:25;35.10;;;7.07;;
17892;SDS011;9072;51.918;4.380;2023-12-29T20:14:54;28.70;;;5.00;;
17892;SDS011;9072;51.918;4.380;2023-12-29T20:17:22;23.70;;;5.10;;
17892;SDS011;9072;51.918;4.380;2023-12-29T20:19:50;26.20;;;5.37;;
17892;SDS011;9072;51.918;4.380;2023-12-29T20:25:39;21.13;;;4.50;;
17892;SDS011;9072;51.918;4.380;2023-12-29T20:31:30;21.00;;;4.13;;
17892;SDS011;9072;51.918;4.380;2023-12-29T20:37:34;22.60;;;5.37;;
17892;SDS011;9072;51.918;4.380;2023-12-29T20:40:36;17.17;;;4.37;;
17892;SDS011;9072;51.918;4.380;2023-12-29T20:47:10;15.40;;;4.80;;
17892;SDS011;9072;51.918;4.380;2023-12-29T20:53:40;19.10;;;5.03;;
17892;SDS011;9072;51.918;4.380;2023-12-29T21:00:38;16.97;;;4.97;;
17892;SDS011;9072;51.918;4.380;2023-12-29T21:10:01;21.50;;;4.30;;
17892;SDS011;9072;51.918;4.380;2023-12-29T21:30:14;18.20;;;3.43;;
17892;SDS011;9072;51.918;4.380;2023-12-29T21:32:45;16.77;;;3.30;;
17892;SDS011;9072;51.918;4.380;2023-12-29T21:35:34;17.73;;;3.80;;
17892;SDS011;9072;51.918;4.380;2023-12-29T21:38:33;13.57;;;3.83;;
17892;SDS011;9072;51.918;4.380;2023-12-29T21:41:22;19.07;;;4.17;;
17892;SDS011;9072;51.918;4.380;2023-12-29T21:43:57;17.77;;;4.07;;
17892;SDS011;9072;51.918;4.380;2023-12-29T21:46:26;18.87;;;3.87;;
17892;SDS011;9072;51.918;4.380;2023-12-29T21:49:05;15.53;;;3.87;;
17892;SDS011;9072;51.918;4.380;2023-12-29T21:51:48;17.20;;;3.37;;
17892;SDS011;9072;51.918;4.380;2023-12-29T21:54:17;19.03;;;3.93;;
17892;SDS011;9072;51.918;4.380;2023-12-29T21:56:49;20.60;;;3.90;;
17892;SDS011;9072;51.918;4.380;2023-12-29T21:59:24;17.07;;;3.53;;
17892;SDS011;9072;51.918;4.380;2023-12-29T22:01:57;13.87;;;3.37;;
17892;SDS011;9072;51.918;4.380;2023-12-29T22:04:28;11.97;;;3.10;;
17892;SDS011;9072;51.918;4.380;2023-12-29T22:06:56;18.37;;;3.80;;
17892;SDS011;9072;51.918;4.380;2023-12-29T22:09:32;10.50;;;3.23;;
17892;SDS011;9072;51.918;4.380;2023-12-29T22:12:05;10.10;;;2.80;;
17892;SDS011;9072;51.918;4.380;2023-12-29T22:14:38;16.07;;;3.40;;
17892;SDS011;9072;51.918;4.380;2023-12-29T22:17:09;12.27;;;3.17;;
17892;SDS011;9072;51.918;4.380;2023-12-29T22:19:39;12.93;;;2.87;;
17892;SDS011;9072;51.918;4.380;2023-12-29T22:22:09;9.27;;;2.73;;
17892;SDS011;9072;51.918;4.380;2023-12-29T22:24:39;14.97;;;3.37;;
17892;SDS011;9072;51.918;4.380;2023-12-29T22:27:15;11.80;;;2.90;;
17892;SDS011;9072;51.918;4.380;2023-12-29T22:29:49;10.77;;;3.37;;
17892;SDS011;9072;51.918;4.380;2023-12-29T22:32:19;8.63;;;2.93;;
17892;SDS011;9072;51.918;4.380;2023-12-29T22:34:49;9.50;;;2.80;;
17892;SDS011;9072;51.918;4.380;2023-12-29T22:37:21;11.00;;;2.53;;
17892;SDS011;9072;51.918;4.380;2023-12-29T22:39:52;12.83;;;2.77;;
17892;SDS011;9072;51.918;4.380;2023-12-29T22:42:22;12.87;;;2.70;;
17892;SDS011;9072;51.918;4.380;2023-12-29T22:45:00;14.63;;;3.07;;
17892;SDS011;9072;51.918;4.380;2023-12-29T22:47:34;10.37;;;2.60;;
17892;SDS011;9072;51.918;4.380;2023-12-29T22:50:07;7.87;;;2.70;;
17892;SDS011;9072;51.918;4.380;2023-12-29T22:52:35;14.43;;;2.73;;
17892;SDS011;9072;51.918;4.380;2023-12-29T22:55:05;13.37;;;2.80;;
17892;SDS011;9072;51.918;4.380;2023-12-29T22:57:39;10.20;;;2.73;;
17892;SDS011;9072;51.918;4.380;2023-12-29T23:00:11;9.47;;;2.97;;
17892;SDS011;9072;51.918;4.380;2023-12-29T23:02:48;15.60;;;3.50;;
17892;SDS011;9072;51.918;4.380;2023-12-29T23:05:17;10.23;;;2.43;;
17892;SDS011;9072;51.918;4.380;2023-12-29T23:07:48;7.33;;;2.20;;
17892;SDS011;9072;51.918;4.380;2023-12-29T23:10:17;12.37;;;2.33;;
17892;SDS011;9072;51.918;4.380;2023-12-29T23:12:46;6.13;;;2.30;;
17892;SDS011;9072;51.918;4.380;2023-12-29T23:15:14;5.67;;;2.23;;
17892;SDS011;9072;51.918;4.380;2023-12-29T23:17:41;7.70;;;2.60;;
17892;SDS011;9072;51.918;4.380;2023-12-29T23:20:12;10.23;;;2.67;;